Club Med II — FNIR — position and weather

sailwx.info

Track history (hours):
 
Tides and Currents Weather Stations Pressure Air Temp Water Temp Dewpoint Dewpoint Depression Visibility Wind Speed Wind Dir Waves Ship Positions

Club Med II

Operator: V.Ships Leisure S.A.M

Last reported at 2017-Mar-25 07:09 UTC. Time now 2017-Mar-30 14:34 UTC.
Position N 15°10' W 061°39'.

Length 187 m; draft 5.2 m.

Type: Ship. MMSI: 227194000.

Date/timePositionNaut miles runAvg speedWind from/ knotsBaromVisibWave heightAir tempDewpointWater temp
2017-Mar-25 07:09N 15°10' W 061°39'3512.1
2017-Mar-25 04:13N 15°45' W 061°47'2212.6
2017-Mar-25 02:28N 16°07' W 061°51'1213.0
2017-Mar-25 01:33N 16°19' W 061°52'1212.1
2017-Mar-25 00:33N 16°30' W 061°51'1212.2
2017-Mar-24 23:33N 16°43' W 061°49'1312.6
2017-Mar-24 22:34N 16°55' W 061°48'5 5.1
2017-Mar-24 21:32N 17°00' W 061°47'0 0.0
2017-Mar-24 20:32N 17°00' W 061°47'0 0.0
2017-Mar-24 19:32N 17°00' W 061°47'  
Track history (hours):
 
Tides and Currents Weather Stations Pressure Air Temp Water Temp Dewpoint Dewpoint Depression Visibility Wind Speed Wind Dir Waves Ship Positions

Club Med II

Operator: V.Ships Leisure S.A.M

Last reported at 2017-Mar-25 07:09 UTC. Time now 2017-Mar-30 14:34 UTC.
Position N 15°10' W 061°39'.

Length 187 m; draft 5.2 m.

Type: Ship. MMSI: 227194000.

Date/timePositionNaut miles runAvg speedWind from/ knotsBaromVisibWave heightAir tempDewpointWater temp
2017-Mar-25 07:09N 15°10' W 061°39'3512.1
2017-Mar-25 04:13N 15°45' W 061°47'2212.6
2017-Mar-25 02:28N 16°07' W 061°51'1213.0
2017-Mar-25 01:33N 16°19' W 061°52'1212.1
2017-Mar-25 00:33N 16°30' W 061°51'1212.2
2017-Mar-24 23:33N 16°43' W 061°49'1312.6
2017-Mar-24 22:34N 16°55' W 061°48'5 5.1
2017-Mar-24 21:32N 17°00' W 061°47'0 0.0
2017-Mar-24 20:32N 17°00' W 061°47'0 0.0
2017-Mar-24 19:32N 17°00' W 061°47'  

Dump ship's entire track history